UAE1DM OMDB-EDDM
Flight info
| Callsign | UAE1DM |
|---|---|
| Flight time | N/A |
| Altitude | 34000 |
| Route | ANVIX R401 GIDIS G783 RIGIL M628 PEKEM DCT MEDPO DCT ITRUX/N0494F360 Y511 PMA Z712 WEJ L677 CVO L617 NOZ L551 NOGLI/N0478F380 L551 ANTAR DCT NEVRA DCT SIGFO DCT BITLA DCT MAVAR DCT AKIKA DCT SOLGU DCT EDALA DCT IDASI DCT ETOBI DCT GORPA DCT BERTA DCT RASTA DCT REDBU Q112 NAPSA NAPSA1B |
| Aircraft | B77W/H-SDE1E2E3FGHIJ2J3J4J5M1RWXY/LB1D1 |
Departure
| Time | 2026-04-23 08:24 |
|---|---|
| Airport | Dubai International Airport (OMDB) |
Arrival
| Time | N/A |
|---|---|
| Airport | Munich Airport (EDDM) |
| Time | Latitude | Longitude | Altitude | Speed | Heading |
|---|---|---|---|---|---|
| 2026-04-23 08:06 | 25.24302 | 55.37443 | 23 ft | 0 kts | 211° |
| 2026-04-23 08:15 | 25.24303 | 55.37444 | 31 ft | 1 kts | 211° |
| 2026-04-23 08:15 | 25.24317 | 55.37453 | 30 ft | 3 kts | 211° |
| 2026-04-23 08:15 | 25.24335 | 55.37465 | 31 ft | 3 kts | 211° |
| 2026-04-23 08:16 | 25.24351 | 55.37476 | 30 ft | 3 kts | 211° |
| 2026-04-23 08:16 | 25.24369 | 55.37486 | 31 ft | 3 kts | 189° |
| 2026-04-23 08:16 | 25.24387 | 55.37485 | 31 ft | 3 kts | 151° |
| 2026-04-23 08:16 | 25.24402 | 55.37472 | 31 ft | 3 kts | 124° |
| 2026-04-23 08:17 | 25.24410 | 55.37458 | 31 ft | 1 kts | 122° |
| 2026-04-23 08:17 | 25.24418 | 55.37443 | 31 ft | 3 kts | 122° |
| 2026-04-23 08:17 | 25.24427 | 55.37427 | 31 ft | 1 kts | 122° |
| 2026-04-23 08:17 | 25.24428 | 55.37425 | 31 ft | 0 kts | 122° |
| 2026-04-23 08:20 | 25.24423 | 55.37434 | 31 ft | 7 kts | 121° |
| 2026-04-23 08:21 | 25.24368 | 55.37533 | 29 ft | 18 kts | 122° |
| 2026-04-23 08:21 | 25.24319 | 55.37642 | 29 ft | 15 kts | 90° |
| 2026-04-23 08:21 | 25.24373 | 55.37735 | 26 ft | 15 kts | 37° |
| 2026-04-23 08:21 | 25.24459 | 55.37800 | 27 ft | 15 kts | 34° |
| 2026-04-23 08:22 | 25.24543 | 55.37868 | 29 ft | 15 kts | 33° |
| 2026-04-23 08:22 | 25.24631 | 55.37929 | 27 ft | 15 kts | 32° |
| 2026-04-23 08:22 | 25.24719 | 55.37991 | 28 ft | 15 kts | 30° |
| 2026-04-23 08:22 | 25.24812 | 55.37998 | 30 ft | 9 kts | 332° |
| 2026-04-23 08:23 | 25.24843 | 55.37959 | 30 ft | 10 kts | 302° |
| 2026-04-23 08:23 | 25.24946 | 55.37772 | 30 ft | 57 kts | 301° |
| 2026-04-23 08:23 | 25.25274 | 55.37184 | 32 ft | 121 kts | 301° |
| 2026-04-23 08:23 | 25.25810 | 55.36217 | 30 ft | 173 kts | 301° |
| 2026-04-23 08:24 | 25.26489 | 55.35003 | 324 ft | 185 kts | 303° |
| 2026-04-23 08:24 | 25.27157 | 55.33823 | 960 ft | 182 kts | 303° |
| 2026-04-23 08:24 | 25.27838 | 55.32586 | 1396 ft | 192 kts | 301° |
| 2026-04-23 08:24 | 25.28529 | 55.31320 | 1882 ft | 198 kts | 301° |
| 2026-04-23 08:25 | 25.29184 | 55.29944 | 2294 ft | 205 kts | 291° |
| 2026-04-23 08:25 | 25.29470 | 55.28387 | 2563 ft | 218 kts | 263° |
| 2026-04-23 08:25 | 25.28966 | 55.26788 | 2877 ft | 225 kts | 238° |
| 2026-04-23 08:25 | 25.28094 | 55.25286 | 3164 ft | 240 kts | 239° |
| 2026-04-23 08:26 | 25.27233 | 55.23629 | 3401 ft | 260 kts | 242° |
| 2026-04-23 08:26 | 25.26377 | 55.21802 | 3800 ft | 271 kts | 243° |
| 2026-04-23 08:26 | 25.25529 | 55.19915 | 4419 ft | 276 kts | 244° |
| 2026-04-23 08:26 | 25.24555 | 55.18121 | 5111 ft | 272 kts | 225° |
| 2026-04-23 08:27 | 25.22983 | 55.17014 | 5817 ft | 270 kts | 198° |
| 2026-04-23 08:27 | 25.21079 | 55.16725 | 6144 ft | 288 kts | 177° |
| 2026-04-23 08:27 | 25.19110 | 55.17362 | 6459 ft | 307 kts | 150° |
| 2026-04-23 08:27 | 25.17537 | 55.19016 | 6962 ft | 321 kts | 125° |
| 2026-04-23 08:28 | 25.16457 | 55.21194 | 7448 ft | 328 kts | 119° |
| 2026-04-23 08:28 | 25.15411 | 55.23448 | 8124 ft | 331 kts | 120° |
| 2026-04-23 08:28 | 25.14347 | 55.25707 | 8845 ft | 333 kts | 120° |
| 2026-04-23 08:28 | 25.13263 | 55.27990 | 9467 ft | 338 kts | 120° |
| 2026-04-23 08:29 | 25.12156 | 55.30303 | 10064 ft | 343 kts | 120° |
| 2026-04-23 08:29 | 25.11056 | 55.32593 | 10998 ft | 333 kts | 121° |
| 2026-04-23 08:29 | 25.10003 | 55.34905 | 11430 ft | 346 kts | 117° |
| 2026-04-23 08:29 | 25.08988 | 55.37396 | 11640 ft | 363 kts | 116° |
| 2026-04-23 08:30 | 25.07957 | 55.39977 | 12051 ft | 374 kts | 116° |
| 2026-04-23 08:30 | 25.06918 | 55.42639 | 12266 ft | 390 kts | 116° |
| 2026-04-23 08:30 | 25.05833 | 55.45459 | 12720 ft | 398 kts | 116° |
| 2026-04-23 08:30 | 25.04761 | 55.48245 | 13281 ft | 402 kts | 116° |
| 2026-04-23 08:31 | 25.03645 | 55.51128 | 13920 ft | 404 kts | 116° |
| 2026-04-23 08:31 | 25.02552 | 55.53940 | 14502 ft | 406 kts | 116° |
| 2026-04-23 08:31 | 25.01322 | 55.56740 | 15054 ft | 407 kts | 122° |
| 2026-04-23 08:31 | 24.99866 | 55.59422 | 15587 ft | 410 kts | 124° |
| 2026-04-23 08:32 | 24.98375 | 55.62115 | 16155 ft | 413 kts | 124° |
| 2026-04-23 08:32 | 24.96884 | 55.64838 | 16755 ft | 416 kts | 123° |
| 2026-04-23 08:32 | 24.95394 | 55.67587 | 17328 ft | 420 kts | 123° |
| 2026-04-23 08:32 | 24.93871 | 55.70344 | 17887 ft | 423 kts | 126° |
| 2026-04-23 08:33 | 24.92160 | 55.72983 | 18394 ft | 425 kts | 129° |
| 2026-04-23 08:33 | 24.90392 | 55.75613 | 18860 ft | 429 kts | 129° |
| 2026-04-23 08:33 | 24.88609 | 55.78265 | 19320 ft | 433 kts | 129° |
| 2026-04-23 08:33 | 24.86817 | 55.80954 | 19780 ft | 438 kts | 129° |
| 2026-04-23 08:34 | 24.85004 | 55.83684 | 20213 ft | 443 kts | 129° |
| 2026-04-23 08:34 | 24.83174 | 55.86436 | 20682 ft | 448 kts | 129° |
| 2026-04-23 08:34 | 24.81310 | 55.89197 | 21154 ft | 448 kts | 131° |
| 2026-04-23 08:34 | 24.79122 | 55.91607 | 21433 ft | 447 kts | 149° |
| 2026-04-23 08:35 | 24.76354 | 55.93108 | 21846 ft | 443 kts | 165° |
| 2026-04-23 08:35 | 24.73355 | 55.93780 | 22308 ft | 439 kts | 180° |
| 2026-04-23 08:35 | 24.70315 | 55.93709 | 22826 ft | 437 kts | 186° |
| 2026-04-23 08:35 | 24.67267 | 55.93532 | 23220 ft | 441 kts | 186° |
| 2026-04-23 08:36 | 24.64188 | 55.93382 | 23572 ft | 442 kts | 188° |
| 2026-04-23 08:36 | 24.61178 | 55.92724 | 23821 ft | 443 kts | 201° |
| 2026-04-23 08:36 | 24.58353 | 55.91377 | 24172 ft | 442 kts | 211° |
| 2026-04-23 08:36 | 24.55817 | 55.89491 | 24546 ft | 439 kts | 222° |
| 2026-04-23 08:37 | 24.53527 | 55.87255 | 24834 ft | 443 kts | 224° |
| 2026-04-23 08:37 | 24.51232 | 55.84972 | 25181 ft | 447 kts | 224° |
| 2026-04-23 08:37 | 24.48916 | 55.82685 | 25551 ft | 449 kts | 224° |
| 2026-04-23 08:37 | 24.46573 | 55.80402 | 25942 ft | 452 kts | 224° |
| 2026-04-23 08:38 | 24.44205 | 55.78118 | 26294 ft | 455 kts | 224° |
| 2026-04-23 08:38 | 24.41816 | 55.75826 | 26679 ft | 457 kts | 224° |
| 2026-04-23 08:38 | 24.39445 | 55.73555 | 27028 ft | 460 kts | 224° |
| 2026-04-23 08:38 | 24.36995 | 55.71208 | 27388 ft | 463 kts | 224° |
| 2026-04-23 08:39 | 24.34601 | 55.68902 | 27724 ft | 466 kts | 225° |
| 2026-04-23 08:39 | 24.32161 | 55.66544 | 28065 ft | 469 kts | 225° |
| 2026-04-23 08:39 | 24.29700 | 55.64188 | 28383 ft | 472 kts | 223° |
| 2026-04-23 08:39 | 24.27003 | 55.62086 | 28667 ft | 480 kts | 215° |